Time;durP1;ratioP1;P1;durP2;ratioP2;P2;SDS_P1;SDS_P2;PMS_P1;PMS_P2;Temp;Humidity;BMP_temperature;BMP_pressure;BME280_temperature;BME280_humidity;BME280_pressure;Samples;Min_cycle;Max_cycle;Signal;HPM_P1;HPM_P2
2024/01/30 00:01:52;;;;;;;12.75;11.98;;;;;;;;;;5018085;28;20036;-58
2024/01/30 00:04:17;;;;;;;11.80;11.18;;;;;;;;;;5021076;28;20084;-56
2024/01/30 00:06:43;;;;;;;11.23;10.63;;;;;;;;;;5020947;28;20571;-58
2024/01/30 00:09:10;;;;;;;10.52;10.02;;;;;;;;;;5001797;28;20079;-58
2024/01/30 00:11:36;;;;;;;11.25;10.65;;;;;;;;;;5022349;28;20017;-58
2024/01/30 00:14:01;;;;;;;11.13;10.52;;;;;;;;;;5018244;28;20088;-58
2024/01/30 00:16:27;;;;;;;11.35;10.75;;;;;;;;;;4986841;28;20060;-59
2024/01/30 00:18:53;;;;;;;11.32;10.73;;;;;;;;;;5026731;28;20025;-57
2024/01/30 00:21:18;;;;;;;11.88;11.27;;;;;;;;;;5026895;28;20036;-57
2024/01/30 00:23:44;;;;;;;11.30;10.70;;;;;;;;;;5024220;28;20029;-59
2024/01/30 00:26:09;;;;;;;11.27;10.68;;;;;;;;;;5019550;28;20026;-57
2024/01/30 00:28:35;;;;;;;13.18;12.38;;;;;;;;;;5021986;28;20070;-58
2024/01/30 00:31:00;;;;;;;12.15;11.48;;;;;;;;;;5024016;28;20025;-58
2024/01/30 00:33:26;;;;;;;12.30;11.60;;;;;;;;;;5023900;28;20017;-59
2024/01/30 00:35:51;;;;;;;11.88;11.18;;;;;;;;;;5021539;28;20084;-58
2024/01/30 00:38:17;;;;;;;11.38;10.77;;;;;;;;;;5020166;28;20029;-57
2024/01/30 00:40:42;;;;;;;12.18;11.48;;;;;;;;;;5023253;28;20122;-59
2024/01/30 00:43:08;;;;;;;12.05;11.35;;;;;;;;;;5021048;28;20061;-57
2024/01/30 00:45:33;;;;;;;12.07;11.45;;;;;;;;;;5023781;28;20524;-59
2024/01/30 00:47:58;;;;;;;12.02;11.40;;;;;;;;;;5021933;28;20044;-58
2024/01/30 00:50:25;;;;;;;12.50;11.80;;;;;;;;;;5023358;28;20086;-58
2024/01/30 00:52:50;;;;;;;12.65;11.95;;;;;;;;;;5021681;28;20096;-57
2024/01/30 00:55:16;;;;;;;12.00;11.38;;;;;;;;;;5017711;28;20033;-57
2024/01/30 00:57:41;;;;;;;11.57;10.98;;;;;;;;;;5021550;28;20384;-59
2024/01/30 01:00:08;;;;;;;11.90;11.30;;;;;;;;;;5019414;28;20162;-59
2024/01/30 01:02:34;;;;;;;12.55;11.85;;;;;;;;;;5025990;28;20021;-58
2024/01/30 01:04:59;;;;;;;12.32;11.63;;;;;;;;;;5028949;28;20726;-60
2024/01/30 01:07:25;;;;;;;12.75;12.05;;;;;;;;;;5026334;28;20056;-59
2024/01/30 01:09:50;;;;;;;11.57;10.98;;;;;;;;;;5024725;28;20021;-58
2024/01/30 01:12:15;;;;;;;13.18;12.38;;;;;;;;;;5025049;28;20427;-58
2024/01/30 01:14:41;;;;;;;11.77;11.18;;;;;;;;;;5006405;28;20114;-59
2024/01/30 01:17:07;;;;;;;12.95;12.23;;;;;;;;;;5027879;28;20143;-58
2024/01/30 01:19:32;;;;;;;12.38;11.68;;;;;;;;;;5027747;28;20582;-59
2024/01/30 01:21:58;;;;;;;13.15;12.35;;;;;;;;;;5005583;28;20034;-59
2024/01/30 01:24:24;;;;;;;12.13;11.43;;;;;;;;;;5021459;28;20075;-59
2024/01/30 01:26:49;;;;;;;13.40;12.60;;;;;;;;;;5024397;28;20051;-59
2024/01/30 01:29:15;;;;;;;11.90;11.30;;;;;;;;;;5025326;28;20021;-59
2024/01/30 01:31:44;;;;;;;12.00;11.40;;;;;;;;;;5022636;28;20075;-59
2024/01/30 01:34:12;;;;;;;12.00;11.30;;;;;;;;;;5027392;28;20029;-58
2024/01/30 01:36:38;;;;;;;12.18;11.50;;;;;;;;;;5024813;28;20056;-59
2024/01/30 01:39:04;;;;;;;12.75;12.05;;;;;;;;;;5020433;28;20068;-59
2024/01/30 01:41:32;;;;;;;13.00;12.30;;;;;;;;;;5024482;28;20021;-59
2024/01/30 01:43:58;;;;;;;12.65;11.95;;;;;;;;;;5003386;28;20045;-58
2024/01/30 01:46:26;;;;;;;12.40;11.70;;;;;;;;;;5027968;28;20092;-57
2024/01/30 01:48:51;;;;;;;12.80;12.05;;;;;;;;;;5026671;28;20025;-56
2024/01/30 01:51:16;;;;;;;12.77;12.07;;;;;;;;;;5024699;28;20018;-57
2024/01/30 01:53:42;;;;;;;13.75;12.85;;;;;;;;;;5025361;28;20032;-57
2024/01/30 01:56:08;;;;;;;12.05;11.45;;;;;;;;;;5023637;28;20026;-57
2024/01/30 01:58:33;;;;;;;12.07;11.38;;;;;;;;;;5024361;28;20151;-59
2024/01/30 02:00:59;;;;;;;12.32;11.63;;;;;;;;;;5024918;28;20013;-59
2024/01/30 02:03:24;;;;;;;12.02;11.32;;;;;;;;;;5025049;28;20041;-58
2024/01/30 02:05:53;;;;;;;12.07;11.38;;;;;;;;;;5028602;28;20075;-58
2024/01/30 02:08:19;;;;;;;12.57;11.88;;;;;;;;;;5026375;28;20033;-58
2024/01/30 02:10:45;;;;;;;10.88;10.38;;;;;;;;;;5028409;28;20026;-58
2024/01/30 02:13:10;;;;;;;10.52;10.02;;;;;;;;;;5033565;28;20024;-56
2024/01/30 02:15:36;;;;;;;11.60;11.00;;;;;;;;;;5024921;28;20743;-58
2024/01/30 02:18:01;;;;;;;11.90;11.20;;;;;;;;;;5024380;28;20031;-58
2024/01/30 02:20:29;;;;;;;12.32;11.63;;;;;;;;;;5022536;28;20170;-58
2024/01/30 02:22:55;;;;;;;11.70;11.10;;;;;;;;;;5007899;28;20084;-55
2024/01/30 02:25:30;;;;;;;11.68;11.05;;;;;;;;;;5023461;28;20025;-57
2024/01/30 02:27:55;;;;;;;12.20;11.50;;;;;;;;;;5021095;28;20029;-58
2024/01/30 02:30:21;;;;;;;12.32;11.63;;;;;;;;;;5025738;28;20027;-57
2024/01/30 02:32:46;;;;;;;11.95;11.25;;;;;;;;;;5025685;28;20013;-58
2024/01/30 02:35:11;;;;;;;11.65;11.05;;;;;;;;;;5023747;28;20053;-58
2024/01/30 02:37:37;;;;;;;11.63;11.02;;;;;;;;;;5026091;28;20049;-59
2024/01/30 02:40:02;;;;;;;12.10;11.40;;;;;;;;;;5002402;28;20025;-58
2024/01/30 02:42:28;;;;;;;11.05;10.50;;;;;;;;;;5026570;28;20068;-57
2024/01/30 02:44:53;;;;;;;11.80;11.15;;;;;;;;;;5023280;28;20561;-59
2024/01/30 02:47:18;;;;;;;11.05;10.45;;;;;;;;;;5030401;28;20021;-59
2024/01/30 02:49:44;;;;;;;11.55;10.95;;;;;;;;;;5025017;28;20032;-58
2024/01/30 02:52:09;;;;;;;11.43;10.82;;;;;;;;;;5018881;28;20032;-58
2024/01/30 02:54:34;;;;;;;11.52;10.90;;;;;;;;;;5017690;28;20045;-59
2024/01/30 02:57:00;;;;;;;12.40;11.70;;;;;;;;;;5023657;28;20483;-59
2024/01/30 02:59:25;;;;;;;11.20;10.60;;;;;;;;;;5019766;28;20033;-58
2024/01/30 03:01:50;;;;;;;12.18;11.48;;;;;;;;;;5020358;28;20112;-58
2024/01/30 03:04:16;;;;;;;10.13;9.63;;;;;;;;;;5026926;28;20049;-57
2024/01/30 03:06:47;;;;;;;12.18;11.48;;;;;;;;;;5026880;28;20060;-58
2024/01/30 03:09:13;;;;;;;11.95;11.27;;;;;;;;;;5022212;28;20025;-58
2024/01/30 03:11:38;;;;;;;12.43;11.73;;;;;;;;;;5019264;28;20472;-58
2024/01/30 03:14:04;;;;;;;12.40;11.70;;;;;;;;;;5019935;28;20049;-58
2024/01/30 03:16:30;;;;;;;12.18;11.48;;;;;;;;;;5021065;28;20017;-58
2024/01/30 03:18:55;;;;;;;11.82;11.23;;;;;;;;;;5026920;28;20048;-57
2024/01/30 03:21:21;;;;;;;12.85;12.10;;;;;;;;;;5019007;28;20025;-58
2024/01/30 03:23:47;;;;;;;11.68;11.07;;;;;;;;;;5025994;28;20033;-58
2024/01/30 03:26:13;;;;;;;11.90;11.27;;;;;;;;;;5018402;28;20034;-58
2024/01/30 03:28:38;;;;;;;11.60;11.00;;;;;;;;;;5020270;28;20033;-58
2024/01/30 03:31:03;;;;;;;11.18;10.57;;;;;;;;;;5025793;28;20553;-60
2024/01/30 03:33:29;;;;;;;12.32;11.63;;;;;;;;;;5020638;28;20025;-59
2024/01/30 03:35:54;;;;;;;12.05;11.35;;;;;;;;;;5024105;28;20416;-57
2024/01/30 03:38:19;;;;;;;11.90;11.23;;;;;;;;;;5022357;28;20480;-58
2024/01/30 03:40:46;;;;;;;11.65;11.05;;;;;;;;;;5022145;28;20048;-59
2024/01/30 03:43:11;;;;;;;11.80;11.15;;;;;;;;;;5021210;28;20110;-58
2024/01/30 03:45:36;;;;;;;11.70;11.10;;;;;;;;;;5022561;28;20116;-59
2024/01/30 03:48:02;;;;;;;11.73;11.07;;;;;;;;;;5023959;28;20052;-59
2024/01/30 03:50:28;;;;;;;12.15;11.52;;;;;;;;;;5023434;28;20558;-56
2024/01/30 03:52:53;;;;;;;11.50;10.90;;;;;;;;;;5023770;28;20693;-58
2024/01/30 03:55:18;;;;;;;12.20;11.50;;;;;;;;;;5009133;28;20453;-57
2024/01/30 03:57:45;;;;;;;11.20;10.60;;;;;;;;;;5023566;28;20053;-58
2024/01/30 04:00:10;;;;;;;11.77;11.10;;;;;;;;;;5022630;28;20029;-57
2024/01/30 04:02:36;;;;;;;11.73;11.13;;;;;;;;;;5027040;28;20029;-57
2024/01/30 04:05:01;;;;;;;10.43;9.93;;;;;;;;;;5029236;28;20060;-56
2024/01/30 04:07:27;;;;;;;12.13;11.43;;;;;;;;;;5019353;28;20025;-58
2024/01/30 04:09:52;;;;;;;11.43;10.82;;;;;;;;;;5020362;28;20030;-58
2024/01/30 04:12:17;;;;;;;12.20;11.50;;;;;;;;;;5017688;28;20487;-59
2024/01/30 04:14:43;;;;;;;12.20;11.50;;;;;;;;;;5019743;28;20041;-56
2024/01/30 04:17:09;;;;;;;12.15;11.45;;;;;;;;;;5021998;28;20025;-58
2024/01/30 04:19:37;;;;;;;11.00;10.48;;;;;;;;;;5021593;28;20033;-58
2024/01/30 04:22:02;;;;;;;11.52;10.93;;;;;;;;;;5018404;28;20025;-58
2024/01/30 04:24:27;;;;;;;12.25;11.55;;;;;;;;;;5021038;28;20052;-57
2024/01/30 04:26:53;;;;;;;10.88;10.32;;;;;;;;;;5023496;28;20025;-57
2024/01/30 04:29:19;;;;;;;11.50;10.90;;;;;;;;;;5021259;28;20515;-57
2024/01/30 04:31:44;;;;;;;11.68;11.05;;;;;;;;;;5019346;28;20091;-58
2024/01/30 04:34:10;;;;;;;11.30;10.70;;;;;;;;;;5024917;28;20505;-57
2024/01/30 04:36:35;;;;;;;13.40;12.60;;;;;;;;;;5020808;28;20399;-58
2024/01/30 04:39:00;;;;;;;12.32;11.63;;;;;;;;;;5021827;28;20546;-60
2024/01/30 04:41:28;;;;;;;11.75;11.13;;;;;;;;;;5022183;28;20017;-56
2024/01/30 04:43:53;;;;;;;12.10;11.40;;;;;;;;;;5019734;28;20040;-58
2024/01/30 04:46:19;;;;;;;10.80;10.30;;;;;;;;;;5025867;28;20021;-58
2024/01/30 04:48:45;;;;;;;11.98;11.27;;;;;;;;;;5021454;28;20128;-57
2024/01/30 04:51:10;;;;;;;12.07;11.38;;;;;;;;;;5020570;28;20309;-57
2024/01/30 04:53:35;;;;;;;10.88;10.32;;;;;;;;;;5002877;28;20010;-58
2024/01/30 04:56:01;;;;;;;12.25;11.55;;;;;;;;;;5021887;28;20479;-58
2024/01/30 04:58:26;;;;;;;12.10;11.40;;;;;;;;;;5019840;28;20091;-59
2024/01/30 05:00:51;;;;;;;12.95;12.18;;;;;;;;;;5016405;28;20037;-59
2024/01/30 05:03:17;;;;;;;13.60;12.80;;;;;;;;;;5020279;28;20069;-57
2024/01/30 05:05:43;;;;;;;13.23;12.43;;;;;;;;;;5018827;28;20084;-58
2024/01/30 05:08:08;;;;;;;12.88;12.18;;;;;;;;;;5015447;28;20029;-59
2024/01/30 05:10:34;;;;;;;12.20;11.50;;;;;;;;;;5016987;28;20079;-58
2024/01/30 05:12:59;;;;;;;12.70;11.98;;;;;;;;;;5016552;28;20032;-57
2024/01/30 05:15:24;;;;;;;11.65;11.05;;;;;;;;;;5020802;28;20033;-57
2024/01/30 05:17:50;;;;;;;12.68;11.98;;;;;;;;;;5020672;28;20484;-58
2024/01/30 05:20:15;;;;;;;12.07;11.38;;;;;;;;;;5027118;28;20122;-58
2024/01/30 05:22:44;;;;;;;12.43;11.73;;;;;;;;;;5022718;28;20056;-60
2024/01/30 05:25:10;;;;;;;11.90;11.30;;;;;;;;;;5023124;28;20029;-59
2024/01/30 05:27:35;;;;;;;13.20;12.50;;;;;;;;;;5025133;28;20277;-58
2024/01/30 05:30:01;;;;;;;12.63;11.93;;;;;;;;;;5025257;28;20373;-60
2024/01/30 05:32:26;;;;;;;13.07;12.27;;;;;;;;;;5024546;28;20017;-59
2024/01/30 05:34:52;;;;;;;13.23;12.43;;;;;;;;;;5026676;28;20061;-59
2024/01/30 05:37:17;;;;;;;12.57;11.88;;;;;;;;;;5019637;28;20120;-59
2024/01/30 05:39:43;;;;;;;12.98;12.18;;;;;;;;;;5021081;28;20028;-57
2024/01/30 05:42:08;;;;;;;12.07;11.38;;;;;;;;;;5024626;28;20033;-59
2024/01/30 05:44:33;;;;;;;12.23;11.52;;;;;;;;;;5026947;28;20029;-56
2024/01/30 05:46:59;;;;;;;12.07;11.38;;;;;;;;;;5020072;28;20028;-58
2024/01/30 05:49:24;;;;;;;13.13;12.32;;;;;;;;;;5028604;28;20030;-58
2024/01/30 05:51:49;;;;;;;12.60;11.85;;;;;;;;;;5026920;28;20025;-58
2024/01/30 05:54:15;;;;;;;13.57;12.70;;;;;;;;;;5026569;28;20029;-56
2024/01/30 05:56:40;;;;;;;12.68;11.98;;;;;;;;;;5023519;28;20091;-58
2024/01/30 05:59:05;;;;;;;11.25;10.63;;;;;;;;;;5025883;28;20074;-58
2024/01/30 06:01:31;;;;;;;11.55;10.85;;;;;;;;;;5029149;28;20116;-58
2024/01/30 06:03:56;;;;;;;10.07;9.52;;;;;;;;;;5024089;28;20046;-58
2024/01/30 06:06:21;;;;;;;10.30;9.70;;;;;;;;;;5025682;28;20056;-59
2024/01/30 06:08:47;;;;;;;10.38;9.77;;;;;;;;;;5020184;28;20013;-58
2024/01/30 06:11:12;;;;;;;8.77;8.35;;;;;;;;;;5020927;28;20589;-58
2024/01/30 06:13:37;;;;;;;9.15;8.65;;;;;;;;;;5019971;28;20134;-59
2024/01/30 06:16:03;;;;;;;10.32;9.73;;;;;;;;;;5016281;28;20033;-59
2024/01/30 06:18:30;;;;;;;9.80;9.30;;;;;;;;;;5019175;28;20064;-59
2024/01/30 06:20:55;;;;;;;10.00;9.50;;;;;;;;;;5018265;28;20036;-59
2024/01/30 06:23:21;;;;;;;10.77;10.18;;;;;;;;;;5025975;28;20026;-59
2024/01/30 06:25:47;;;;;;;9.48;9.00;;;;;;;;;;5020778;28;20032;-59
2024/01/30 06:28:12;;;;;;;9.73;9.23;;;;;;;;;;5021231;28;20032;-59
2024/01/30 06:30:37;;;;;;;10.85;10.35;;;;;;;;;;5019959;28;20372;-59
2024/01/30 06:33:03;;;;;;;11.35;10.75;;;;;;;;;;5022682;28;20431;-60
2024/01/30 06:35:28;;;;;;;9.60;9.20;;;;;;;;;;5021931;28;20029;-59
2024/01/30 06:37:54;;;;;;;11.18;10.68;;;;;;;;;;5021867;28;20605;-59
2024/01/30 06:40:19;;;;;;;10.70;10.20;;;;;;;;;;5019341;28;20029;-59
2024/01/30 06:42:46;;;;;;;11.27;10.77;;;;;;;;;;5001315;28;20025;-58
2024/01/30 06:45:11;;;;;;;10.98;10.48;;;;;;;;;;5018734;28;20079;-59
2024/01/30 06:47:36;;;;;;;10.95;10.45;;;;;;;;;;5024123;28;20025;-60
2024/01/30 06:50:03;;;;;;;10.93;10.43;;;;;;;;;;5025685;28;20025;-60
2024/01/30 06:52:28;;;;;;;11.30;10.80;;;;;;;;;;5025390;28;20028;-60
2024/01/30 06:54:54;;;;;;;11.77;11.27;;;;;;;;;;5024081;28;20502;-61
2024/01/30 06:57:20;;;;;;;11.82;11.32;;;;;;;;;;5024818;28;20029;-61
2024/01/30 06:59:45;;;;;;;11.70;11.20;;;;;;;;;;5022641;28;20028;-58
2024/01/30 07:02:11;;;;;;;11.60;11.10;;;;;;;;;;5018572;28;20500;-58
2024/01/30 07:04:37;;;;;;;11.93;11.43;;;;;;;;;;5019215;28;20517;-60
2024/01/30 07:07:02;;;;;;;11.90;11.40;;;;;;;;;;5026799;28;20029;-60
2024/01/30 07:09:29;;;;;;;12.40;11.80;;;;;;;;;;5027546;28;20025;-60
2024/01/30 07:11:55;;;;;;;12.10;11.57;;;;;;;;;;5022006;28;20014;-60
2024/01/30 07:14:20;;;;;;;12.18;11.68;;;;;;;;;;5018781;28;20203;-60
2024/01/30 07:16:46;;;;;;;12.02;11.52;;;;;;;;;;5020294;28;20505;-60
2024/01/30 07:19:11;;;;;;;12.05;11.55;;;;;;;;;;5023300;28;20039;-60
2024/01/30 07:21:36;;;;;;;12.30;11.80;;;;;;;;;;5031031;28;20091;-60
2024/01/30 07:24:02;;;;;;;12.10;11.60;;;;;;;;;;5032798;28;20515;-58
2024/01/30 07:26:27;;;;;;;12.07;11.57;;;;;;;;;;5025262;28;20373;-60
2024/01/30 07:28:53;;;;;;;12.20;11.70;;;;;;;;;;5031960;28;20486;-59
2024/01/30 07:31:20;;;;;;;12.07;11.57;;;;;;;;;;5028172;28;20484;-59
2024/01/30 07:33:46;;;;;;;12.55;11.95;;;;;;;;;;5028499;28;20041;-57
2024/01/30 07:36:11;;;;;;;12.57;11.98;;;;;;;;;;5031204;28;20120;-57
2024/01/30 07:38:36;;;;;;;12.32;11.80;;;;;;;;;;5032667;28;20029;-58
2024/01/30 07:41:02;;;;;;;12.70;12.10;;;;;;;;;;5026226;28;20022;-55
2024/01/30 07:43:27;;;;;;;12.60;12.00;;;;;;;;;;5027568;28;20100;-60
2024/01/30 07:45:52;;;;;;;13.00;12.40;;;;;;;;;;5029435;28;20028;-60
2024/01/30 07:48:18;;;;;;;12.70;12.10;;;;;;;;;;5022276;28;20426;-60
2024/01/30 07:50:43;;;;;;;12.27;11.77;;;;;;;;;;5023058;28;20029;-60
2024/01/30 07:53:08;;;;;;;12.70;12.10;;;;;;;;;;5026062;28;20028;-58
2024/01/30 07:55:34;;;;;;;12.65;12.05;;;;;;;;;;5025692;28;20039;-58
2024/01/30 07:58:00;;;;;;;12.60;12.00;;;;;;;;;;5029398;28;20041;-58
2024/01/30 08:00:25;;;;;;;13.10;12.50;;;;;;;;;;5024254;28;20490;-57
2024/01/30 08:02:53;;;;;;;13.65;13.05;;;;;;;;;;5019833;28;20281;-64
2024/01/30 08:05:19;;;;;;;12.70;12.10;;;;;;;;;;4987859;28;20026;-64
2024/01/30 08:07:45;;;;;;;12.55;11.95;;;;;;;;;;4989241;28;20034;-65
2024/01/30 08:10:12;;;;;;;12.60;12.00;;;;;;;;;;4986138;28;20031;-60
2024/01/30 08:12:37;;;;;;;12.73;12.13;;;;;;;;;;4990276;28;20117;-60
2024/01/30 08:15:04;;;;;;;12.40;11.80;;;;;;;;;;4982743;28;20448;-60
2024/01/30 08:17:30;;;;;;;12.60;12.00;;;;;;;;;;4984248;28;20026;-64
2024/01/30 08:19:55;;;;;;;12.25;11.75;;;;;;;;;;4990421;28;20096;-62
2024/01/30 08:22:20;;;;;;;12.68;12.07;;;;;;;;;;4988824;28;20030;-64
2024/01/30 08:24:46;;;;;;;12.57;11.98;;;;;;;;;;4983786;28;20608;-61
2024/01/30 08:27:12;;;;;;;12.50;11.90;;;;;;;;;;4986827;28;20567;-61
2024/01/30 08:29:37;;;;;;;12.20;11.70;;;;;;;;;;4988762;28;20026;-61
2024/01/30 08:32:04;;;;;;;12.38;11.82;;;;;;;;;;4985986;28;20896;-62
2024/01/30 08:34:29;;;;;;;12.85;12.25;;;;;;;;;;4982781;28;20033;-65
2024/01/30 08:36:55;;;;;;;12.15;11.65;;;;;;;;;;5000373;28;20027;-62
2024/01/30 08:39:20;;;;;;;12.80;12.20;;;;;;;;;;4988803;28;20062;-61
2024/01/30 08:41:45;;;;;;;12.65;12.05;;;;;;;;;;4989082;28;20113;-61
2024/01/30 08:44:11;;;;;;;12.30;11.73;;;;;;;;;;4985288;28;20060;-60
2024/01/30 08:46:36;;;;;;;12.32;11.77;;;;;;;;;;4990724;28;20058;-59
2024/01/30 08:49:02;;;;;;;11.98;11.48;;;;;;;;;;4990986;28;20061;-59
2024/01/30 08:51:28;;;;;;;12.00;11.50;;;;;;;;;;4989993;28;20018;-59
2024/01/30 08:53:53;;;;;;;12.02;11.52;;;;;;;;;;4990142;28;20027;-59
2024/01/30 08:56:19;;;;;;;12.07;11.57;;;;;;;;;;4989999;28;20017;-59
2024/01/30 08:58:44;;;;;;;12.05;11.55;;;;;;;;;;4989723;28;20069;-58
2024/01/30 09:01:09;;;;;;;12.52;11.93;;;;;;;;;;4989475;28;20026;-63
2024/01/30 09:03:36;;;;;;;12.35;11.82;;;;;;;;;;5000457;28;20052;-63
2024/01/30 09:06:01;;;;;;;12.40;11.80;;;;;;;;;;5029282;28;20028;-64
2024/01/30 09:08:27;;;;;;;12.05;11.55;;;;;;;;;;5028374;28;20018;-65
2024/01/30 09:10:52;;;;;;;12.00;11.50;;;;;;;;;;5028954;28;20029;-63
2024/01/30 09:13:17;;;;;;;12.60;12.00;;;;;;;;;;5026763;28;20025;-64
2024/01/30 09:15:43;;;;;;;12.88;12.27;;;;;;;;;;5009682;28;20399;-62
2024/01/30 09:18:09;;;;;;;12.73;12.13;;;;;;;;;;5031816;28;20456;-64
2024/01/30 09:20:34;;;;;;;12.60;12.00;;;;;;;;;;5017287;28;20079;-63
2024/01/30 09:22:59;;;;;;;12.82;12.23;;;;;;;;;;5030053;28;20187;-62
2024/01/30 09:25:25;;;;;;;12.68;12.07;;;;;;;;;;5034555;28;20103;-65
2024/01/30 09:27:50;;;;;;;12.82;12.23;;;;;;;;;;5032691;28;20407;-63
2024/01/30 09:30:16;;;;;;;12.63;12.02;;;;;;;;;;5013765;28;20022;-62
2024/01/30 09:32:41;;;;;;;12.52;11.93;;;;;;;;;;5029365;28;20034;-62
2024/01/30 09:35:07;;;;;;;12.80;12.20;;;;;;;;;;5033572;28;20467;-63
2024/01/30 09:37:32;;;;;;;12.90;12.30;;;;;;;;;;5037600;28;20531;-63
2024/01/30 09:39:58;;;;;;;13.05;12.45;;;;;;;;;;5032588;28;20021;-63
2024/01/30 09:42:29;;;;;;;13.15;12.55;;;;;;;;;;5029583;28;20029;-61
2024/01/30 09:44:55;;;;;;;12.70;12.10;;;;;;;;;;5029988;28;20077;-61
2024/01/30 09:47:20;;;;;;;12.50;11.90;;;;;;;;;;5032089;28;20468;-62
2024/01/30 09:49:46;;;;;;;12.52;11.93;;;;;;;;;;5012789;28;20039;-64
2024/01/30 09:52:12;;;;;;;12.95;12.35;;;;;;;;;;5031699;28;20034;-61
2024/01/30 09:54:38;;;;;;;13.45;12.85;;;;;;;;;;5033465;28;20124;-61
2024/01/30 09:57:04;;;;;;;13.00;12.40;;;;;;;;;;5032372;28;20418;-61
2024/01/30 09:59:29;;;;;;;13.43;12.82;;;;;;;;;;5026205;28;20039;-64
2024/01/30 10:01:55;;;;;;;13.95;13.25;;;;;;;;;;5013254;28;20108;-64
2024/01/30 10:04:20;;;;;;;13.57;12.88;;;;;;;;;;5031285;28;20136;-63
2024/01/30 10:06:46;;;;;;;13.27;12.65;;;;;;;;;;5032299;28;20018;-64
2024/01/30 10:09:11;;;;;;;13.00;12.40;;;;;;;;;;5031674;28;20028;-61
2024/01/30 10:11:37;;;;;;;12.88;12.27;;;;;;;;;;5033134;28;20104;-63
2024/01/30 10:14:02;;;;;;;12.25;11.65;;;;;;;;;;5029510;28;20629;-62
2024/01/30 10:16:27;;;;;;;12.68;12.07;;;;;;;;;;5031454;28;20014;-62
2024/01/30 10:18:53;;;;;;;13.07;12.38;;;;;;;;;;5030328;28;20053;-62
2024/01/30 10:21:18;;;;;;;12.60;12.00;;;;;;;;;;5032687;28;20022;-63
2024/01/30 10:23:44;;;;;;;12.38;11.77;;;;;;;;;;5034540;28;20026;-60
2024/01/30 10:26:10;;;;;;;12.18;11.57;;;;;;;;;;5031167;28;20112;-63
2024/01/30 10:28:35;;;;;;;12.15;11.55;;;;;;;;;;5030959;28;20136;-64
2024/01/30 10:31:01;;;;;;;13.10;12.40;;;;;;;;;;5015055;28;20021;-63
2024/01/30 10:33:27;;;;;;;12.80;12.10;;;;;;;;;;5028412;28;20017;-62
2024/01/30 10:35:55;;;;;;;12.00;11.40;;;;;;;;;;5033045;28;20029;-62
2024/01/30 10:38:21;;;;;;;11.80;11.20;;;;;;;;;;5032267;28;20025;-62
2024/01/30 10:40:47;;;;;;;12.68;11.98;;;;;;;;;;5029812;28;20549;-61
2024/01/30 10:43:15;;;;;;;12.25;11.65;;;;;;;;;;5030442;28;20030;-61
2024/01/30 10:45:44;;;;;;;12.98;12.27;;;;;;;;;;5028932;28;20511;-65
2024/01/30 10:48:11;;;;;;;11.55;10.95;;;;;;;;;;5020345;28;20033;-61
2024/01/30 10:50:36;;;;;;;11.13;10.63;;;;;;;;;;5027954;28;20028;-62
2024/01/30 10:53:02;;;;;;;11.55;10.95;;;;;;;;;;5025758;28;20021;-63
2024/01/30 10:55:28;;;;;;;11.15;10.65;;;;;;;;;;5031820;28;20053;-63
2024/01/30 10:57:54;;;;;;;11.50;10.90;;;;;;;;;;5032246;28;20052;-63
2024/01/30 11:00:23;;;;;;;13.13;12.43;;;;;;;;;;5009975;28;20069;-58
2024/01/30 11:02:49;;;;;;;11.75;11.15;;;;;;;;;;5031834;28;20079;-58
2024/01/30 11:05:17;;;;;;;11.63;11.02;;;;;;;;;;5034446;28;20053;-59
2024/01/30 11:07:43;;;;;;;11.02;10.52;;;;;;;;;;5035552;28;20032;-58
2024/01/30 11:10:09;;;;;;;12.07;11.48;;;;;;;;;;5030981;28;21412;-59
2024/01/30 11:12:40;;;;;;;11.57;10.98;;;;;;;;;;5037661;28;20022;-55
2024/01/30 11:15:15;;;;;;;10.90;10.40;;;;;;;;;;5035431;28;20056;-57
2024/01/30 11:17:41;;;;;;;11.20;10.68;;;;;;;;;;5036443;28;20103;-56
2024/01/30 11:20:09;;;;;;;11.65;11.05;;;;;;;;;;5024321;28;20021;-62
2024/01/30 11:22:35;;;;;;;10.57;10.07;;;;;;;;;;5033829;28;20083;-62
2024/01/30 11:25:03;;;;;;;10.70;10.20;;;;;;;;;;5030697;28;20311;-63
2024/01/30 11:27:28;;;;;;;11.20;10.65;;;;;;;;;;5030099;28;20029;-63
2024/01/30 11:30:00;;;;;;;11.55;10.95;;;;;;;;;;5030139;28;20057;-63
2024/01/30 11:32:26;;;;;;;10.80;10.30;;;;;;;;;;5031212;28;20021;-62
2024/01/30 11:34:51;;;;;;;10.45;9.95;;;;;;;;;;5031385;28;20040;-62
2024/01/30 11:37:21;;;;;;;10.88;10.38;;;;;;;;;;5029864;28;20493;-62
2024/01/30 11:39:46;;;;;;;10.88;10.38;;;;;;;;;;5025146;28;20026;-61
2024/01/30 11:42:12;;;;;;;10.77;10.27;;;;;;;;;;5028327;28;20040;-62
2024/01/30 11:44:38;;;;;;;10.85;10.35;;;;;;;;;;5029985;28;20033;-62
2024/01/30 11:47:03;;;;;;;10.32;9.82;;;;;;;;;;5029483;28;20388;-62
2024/01/30 11:49:29;;;;;;;11.13;10.63;;;;;;;;;;5029147;28;20128;-63
2024/01/30 11:51:54;;;;;;;10.70;10.20;;;;;;;;;;5029185;28;20068;-63
2024/01/30 11:54:19;;;;;;;11.40;10.80;;;;;;;;;;5029761;28;20029;-63
2024/01/30 11:56:46;;;;;;;11.07;10.57;;;;;;;;;;5029506;28;20633;-63
2024/01/30 11:59:11;;;;;;;10.40;9.90;;;;;;;;;;5026559;28;20096;-63
2024/01/30 12:01:37;;;;;;;10.32;9.82;;;;;;;;;;5030656;28;20499;-61
2024/01/30 12:04:03;;;;;;;10.30;9.80;;;;;;;;;;5028330;28;20276;-61
2024/01/30 12:06:28;;;;;;;11.55;10.95;;;;;;;;;;5030163;28;20101;-62
2024/01/30 12:08:57;;;;;;;10.70;10.20;;;;;;;;;;5029937;28;20033;-63
2024/01/30 12:11:22;;;;;;;10.65;10.15;;;;;;;;;;5026581;28;20029;-62
2024/01/30 12:13:48;;;;;;;10.80;10.30;;;;;;;;;;5030463;28;20032;-62
2024/01/30 12:16:13;;;;;;;10.45;9.95;;;;;;;;;;5026141;28;20109;-62
2024/01/30 12:18:39;;;;;;;10.73;10.23;;;;;;;;;;5029614;28;20117;-62
2024/01/30 12:21:04;;;;;;;11.15;10.63;;;;;;;;;;5030369;28;20476;-62
2024/01/30 12:23:30;;;;;;;10.90;10.40;;;;;;;;;;5029342;28;20131;-63
2024/01/30 12:25:55;;;;;;;10.77;10.27;;;;;;;;;;5030630;28;20029;-62
2024/01/30 12:28:21;;;;;;;11.43;10.85;;;;;;;;;;5029264;28;20029;-63
2024/01/30 12:30:46;;;;;;;10.70;10.20;;;;;;;;;;5026443;28;20476;-60
2024/01/30 12:33:20;;;;;;;11.70;11.10;;;;;;;;;;5028928;28;20507;-62
2024/01/30 12:35:47;;;;;;;10.60;10.10;;;;;;;;;;5029263;28;20021;-61
2024/01/30 12:38:12;;;;;;;10.68;10.18;;;;;;;;;;5029834;28;20032;-61
2024/01/30 12:40:38;;;;;;;11.30;10.70;;;;;;;;;;5027467;28;20029;-56
2024/01/30 12:43:03;;;;;;;11.10;10.60;;;;;;;;;;5027975;28;20048;-55
2024/01/30 12:45:29;;;;;;;11.18;10.68;;;;;;;;;;5027666;28;20116;-61
2024/01/30 12:47:55;;;;;;;10.60;10.10;;;;;;;;;;5012949;28;20064;-61
2024/01/30 12:50:20;;;;;;;11.27;10.73;;;;;;;;;;5027221;28;20021;-62
2024/01/30 12:52:46;;;;;;;11.02;10.52;;;;;;;;;;5028261;28;20026;-62
2024/01/30 12:55:11;;;;;;;11.38;10.80;;;;;;;;;;5028413;28;20057;-62
2024/01/30 12:57:39;;;;;;;11.70;11.10;;;;;;;;;;5028432;28;20072;-61
2024/01/30 13:00:08;;;;;;;10.43;9.93;;;;;;;;;;5020139;28;20474;-61
2024/01/30 13:02:36;;;;;;;10.88;10.38;;;;;;;;;;5033793;28;20075;-62
2024/01/30 13:05:04;;;;;;;11.00;10.50;;;;;;;;;;5033347;28;20137;-59
2024/01/30 13:07:30;;;;;;;10.88;10.38;;;;;;;;;;5032949;28;20028;-61
2024/01/30 13:09:56;;;;;;;10.85;10.35;;;;;;;;;;5034804;28;20014;-59
2024/01/30 13:12:21;;;;;;;10.77;10.27;;;;;;;;;;5034419;28;20020;-59
2024/01/30 13:14:47;;;;;;;10.85;10.35;;;;;;;;;;5013383;28;20034;-64
2024/01/30 13:17:12;;;;;;;10.80;10.30;;;;;;;;;;5034680;28;20025;-62
2024/01/30 13:19:37;;;;;;;11.02;10.52;;;;;;;;;;5035246;28;20025;-63
2024/01/30 13:22:03;;;;;;;10.75;10.25;;;;;;;;;;5036915;28;20083;-62
2024/01/30 13:24:28;;;;;;;10.48;9.98;;;;;;;;;;5038471;28;20025;-62
2024/01/30 13:26:54;;;;;;;10.50;10.00;;;;;;;;;;5021857;28;20029;-62
2024/01/30 13:29:19;;;;;;;10.82;10.32;;;;;;;;;;5037465;28;20027;-61
2024/01/30 13:31:46;;;;;;;11.00;10.50;;;;;;;;;;5034886;28;20467;-62
2024/01/30 13:34:12;;;;;;;10.80;10.30;;;;;;;;;;5039685;28;20040;-62
2024/01/30 13:36:38;;;;;;;10.90;10.40;;;;;;;;;;5032378;28;20025;-62
2024/01/30 13:39:05;;;;;;;10.60;10.10;;;;;;;;;;5033559;28;20021;-61
2024/01/30 13:41:30;;;;;;;11.10;10.60;;;;;;;;;;5027678;28;20079;-60
2024/01/30 13:43:56;;;;;;;11.05;10.55;;;;;;;;;;5032012;28;20025;-60
2024/01/30 13:46:21;;;;;;;10.90;10.40;;;;;;;;;;5035227;28;20017;-61
2024/01/30 13:48:47;;;;;;;11.80;11.20;;;;;;;;;;5034639;28;20021;-63
2024/01/30 13:51:12;;;;;;;10.55;10.05;;;;;;;;;;5030400;28;20495;-63
2024/01/30 13:53:38;;;;;;;10.90;10.40;;;;;;;;;;5021193;28;20026;-61
2024/01/30 13:56:03;;;;;;;10.82;10.32;;;;;;;;;;5031275;28;20017;-62
2024/01/30 13:58:29;;;;;;;10.68;10.18;;;;;;;;;;5021387;28;20480;-64
2024/01/30 14:00:54;;;;;;;11.30;10.70;;;;;;;;;;5032783;28;20032;-62
2024/01/30 14:03:20;;;;;;;10.73;10.23;;;;;;;;;;5031895;28;20033;-62
2024/01/30 14:05:45;;;;;;;11.60;11.00;;;;;;;;;;5033094;28;20030;-64
2024/01/30 14:08:11;;;;;;;10.90;10.40;;;;;;;;;;5032804;28;20037;-62
2024/01/30 14:10:36;;;;;;;11.20;10.70;;;;;;;;;;5030533;28;20049;-62